createdAt,value
2023-04-09T00:00:25.752Z,5.85
2023-04-09T00:03:34.567Z,5.84
2023-04-09T00:06:36.295Z,5.77
2023-04-09T00:09:37.858Z,5.69
2023-04-09T00:12:39.553Z,5.68
2023-04-09T00:15:41.189Z,5.64
2023-04-09T00:18:42.780Z,5.56
2023-04-09T00:21:44.383Z,5.50
2023-04-09T00:24:46.168Z,5.41
2023-04-09T00:27:50.483Z,5.36
2023-04-09T00:30:52.150Z,5.29
2023-04-09T00:33:53.681Z,5.30
2023-04-09T00:36:55.353Z,5.22
2023-04-09T00:39:56.848Z,4.99
2023-04-09T00:42:58.418Z,4.97
2023-04-09T00:46:00.944Z,4.95
2023-04-09T00:49:03.165Z,4.83
2023-04-09T00:52:04.872Z,4.63
2023-04-09T00:55:06.803Z,4.53
2023-04-09T00:58:08.407Z,4.56
2023-04-09T01:01:10.006Z,4.53
2023-04-09T01:04:11.558Z,4.50
2023-04-09T01:07:35.841Z,4.37
2023-04-09T01:10:40.445Z,4.31
2023-04-09T01:13:49.375Z,4.29
2023-04-09T01:16:53.594Z,3.96
2023-04-09T01:20:06.720Z,3.70
2023-04-09T01:23:11.227Z,3.82
2023-04-09T01:26:50.467Z,3.86
2023-04-09T01:29:52.045Z,3.54
2023-04-09T01:32:53.666Z,3.39
2023-04-09T01:35:55.385Z,3.31
2023-04-09T01:38:57.116Z,3.20
2023-04-09T01:41:58.808Z,3.09
2023-04-09T01:45:00.501Z,2.99
2023-04-09T01:48:02.104Z,2.92
2023-04-09T01:51:03.914Z,2.88
2023-04-09T01:54:05.741Z,2.86
2023-04-09T01:57:07.268Z,2.80
2023-04-09T02:00:09.485Z,2.66
2023-04-09T02:03:17.157Z,2.69
2023-04-09T02:06:31.160Z,2.59
2023-04-09T02:09:33.273Z,2.54
2023-04-09T02:12:36.511Z,2.45
2023-04-09T02:15:38.042Z,2.33
2023-04-09T02:18:39.648Z,2.45
2023-04-09T02:21:41.214Z,2.44
2023-04-09T02:24:42.732Z,2.41
2023-04-09T02:27:44.258Z,2.44
2023-04-09T02:30:45.881Z,2.34
2023-04-09T02:33:47.540Z,2.32
2023-04-09T02:36:49.099Z,2.28
2023-04-09T02:39:50.700Z,2.17
2023-04-09T02:42:52.818Z,2.09
2023-04-09T02:45:54.549Z,1.99
2023-04-09T02:48:56.192Z,1.92
2023-04-09T02:51:57.719Z,1.82
2023-04-09T02:54:59.298Z,1.79
2023-04-09T02:58:01.079Z,1.79
2023-04-09T03:01:02.680Z,1.81
2023-04-09T03:04:04.343Z,1.74
2023-04-09T03:07:06.001Z,1.71
2023-04-09T03:10:07.881Z,1.68
2023-04-09T03:13:09.497Z,1.72
2023-04-09T03:16:11.177Z,1.77
2023-04-09T03:19:12.758Z,1.73
2023-04-09T03:22:14.379Z,1.62
2023-04-09T03:25:16.122Z,1.54
2023-04-09T03:28:17.746Z,1.51
2023-04-09T03:31:19.425Z,1.44
2023-04-09T03:34:21.016Z,1.39
2023-04-09T03:37:22.678Z,1.33
2023-04-09T03:40:24.349Z,1.30
2023-04-09T03:43:25.871Z,1.25
2023-04-09T03:46:27.465Z,1.18
2023-04-09T03:49:28.964Z,1.19
2023-04-09T03:52:30.509Z,1.14
2023-04-09T03:55:32.020Z,1.07
2023-04-09T03:58:33.753Z,0.98
2023-04-09T04:01:35.388Z,0.89
2023-04-09T04:04:37.039Z,0.89
2023-04-09T04:07:38.636Z,0.85
2023-04-09T04:10:40.287Z,0.89
2023-04-09T04:13:41.810Z,0.91
2023-04-09T04:16:43.436Z,0.86
2023-04-09T04:19:45.233Z,0.84
2023-04-09T04:22:46.787Z,0.80
2023-04-09T04:25:48.301Z,0.77
2023-04-09T04:28:49.920Z,0.69
2023-04-09T04:31:51.647Z,0.70
2023-04-09T04:34:53.355Z,0.65
2023-04-09T04:37:57.602Z,0.67
2023-04-09T04:40:59.376Z,0.67
2023-04-09T04:44:00.953Z,0.75
2023-04-09T04:47:02.470Z,0.73
2023-04-09T04:50:04.325Z,0.74
2023-04-09T04:53:06.069Z,0.66
2023-04-09T04:56:07.865Z,0.65
2023-04-09T04:59:09.416Z,0.65
2023-04-09T05:02:11.081Z,0.66
2023-04-09T05:05:12.675Z,0.69
2023-04-09T05:08:14.438Z,0.65
2023-04-09T05:11:16.959Z,0.60
2023-04-09T05:14:18.946Z,0.54
2023-04-09T05:17:20.586Z,0.65
2023-04-09T05:20:22.216Z,0.65
2023-04-09T05:23:23.827Z,0.71
2023-04-09T05:26:25.441Z,0.71
2023-04-09T05:29:27.012Z,0.76
2023-04-09T05:32:28.524Z,0.77
2023-04-09T05:35:30.116Z,0.91
2023-04-09T05:38:31.706Z,1.01
2023-04-09T05:41:33.666Z,1.15
2023-04-09T05:44:35.562Z,1.16
2023-04-09T05:47:37.143Z,1.07
2023-04-09T05:50:53.373Z,1.13
2023-04-09T05:53:55.862Z,1.12
2023-04-09T05:56:57.386Z,1.24
2023-04-09T05:59:59.005Z,1.27
2023-04-09T06:03:00.648Z,1.42
2023-04-09T06:06:02.253Z,1.49
2023-04-09T06:09:04.534Z,1.66
2023-04-09T06:12:06.069Z,1.79
2023-04-09T06:15:07.735Z,1.86
2023-04-09T06:18:09.368Z,1.97
2023-04-09T06:21:10.980Z,1.88
2023-04-09T06:24:12.772Z,1.95
2023-04-09T06:27:14.328Z,2.02
2023-04-09T06:30:15.914Z,2.11
2023-04-09T06:33:17.492Z,2.23
2023-04-09T06:36:20.168Z,2.41
2023-04-09T06:39:21.593Z,2.59
2023-04-09T06:42:23.117Z,2.70
2023-04-09T06:45:24.745Z,2.85
2023-04-09T06:48:26.320Z,2.99
2023-04-09T06:51:27.914Z,3.08
2023-04-09T06:54:29.526Z,3.39
2023-04-09T06:57:31.179Z,3.52
2023-04-09T07:00:32.741Z,3.67
2023-04-09T07:03:34.577Z,3.79
2023-04-09T07:06:36.285Z,3.92
2023-04-09T07:09:37.802Z,3.94
2023-04-09T07:12:39.372Z,4.04
2023-04-09T07:15:42.496Z,4.15
2023-04-09T07:18:44.489Z,4.33
2023-04-09T07:21:46.010Z,4.63
2023-04-09T07:24:53.423Z,4.94
2023-04-09T07:27:54.940Z,5.08
2023-04-09T07:30:56.552Z,5.35
2023-04-09T07:33:58.194Z,5.60
2023-04-09T07:36:59.809Z,5.86
2023-04-09T07:40:01.680Z,6.13
2023-04-09T07:43:03.878Z,6.37
2023-04-09T07:46:06.981Z,6.69
2023-04-09T07:49:08.569Z,6.92
2023-04-09T07:52:10.133Z,7.13
2023-04-09T07:55:11.673Z,7.31
2023-04-09T07:58:13.224Z,7.55
2023-04-09T08:01:15.308Z,7.79
2023-04-09T08:04:17.300Z,8.16
2023-04-09T08:07:18.938Z,8.46
2023-04-09T08:10:20.604Z,8.70
2023-04-09T08:13:24.300Z,8.77
2023-04-09T08:16:25.947Z,9.70
2023-04-09T08:19:27.514Z,10.47
2023-04-09T08:22:29.120Z,10.59
2023-04-09T08:25:30.962Z,10.53
2023-04-09T08:28:32.660Z,10.67
2023-04-09T08:31:34.503Z,10.69
2023-04-09T08:34:36.120Z,10.67
2023-04-09T08:37:37.724Z,10.71
2023-04-09T08:40:39.416Z,10.71
2023-04-09T08:43:53.109Z,10.24
2023-04-09T08:46:59.772Z,10.20
2023-04-09T08:50:01.357Z,10.28
2023-04-09T08:53:03.777Z,10.14
2023-04-09T08:56:05.815Z,10.83
2023-04-09T08:59:07.386Z,10.61
2023-04-09T09:02:10.759Z,10.14
2023-04-09T09:05:13.579Z,10.49
2023-04-09T09:08:23.691Z,11.40
2023-04-09T09:11:29.040Z,12.37
2023-04-09T09:14:31.844Z,11.99
2023-04-09T09:17:34.397Z,14.74
2023-04-09T09:20:35.987Z,14.94
2023-04-09T09:23:38.387Z,15.62
2023-04-09T09:26:39.983Z,15.85
2023-04-09T09:29:45.170Z,15.10
2023-04-09T09:32:46.835Z,13.37
2023-04-09T09:35:54.122Z,13.48
2023-04-09T09:38:57.325Z,15.18
2023-04-09T09:42:07.518Z,15.88
2023-04-09T09:45:19.371Z,13.98
2023-04-09T09:48:21.986Z,12.83
2023-04-09T09:51:27.250Z,12.12
2023-04-09T09:54:29.424Z,12.00
2023-04-09T09:57:33.829Z,12.18
2023-04-09T10:00:35.722Z,12.46
2023-04-09T10:03:40.533Z,12.36
2023-04-09T10:06:45.218Z,11.67
2023-04-09T10:09:49.835Z,11.75
2023-04-09T10:12:51.555Z,11.74
2023-04-09T10:15:53.434Z,12.99
2023-04-09T10:19:00.480Z,12.77
2023-04-09T10:22:12.249Z,12.75
2023-04-09T10:25:13.898Z,12.30
2023-04-09T10:28:18.603Z,12.20
2023-04-09T10:31:20.295Z,12.04
2023-04-09T10:34:23.597Z,11.93
2023-04-09T10:37:26.161Z,12.46
2023-04-09T10:40:28.929Z,12.12
2023-04-09T10:43:30.637Z,11.86
2023-04-09T10:46:36.550Z,11.76
2023-04-09T10:49:39.309Z,11.83
2023-04-09T10:52:41.772Z,12.61
2023-04-09T10:55:44.526Z,12.98
2023-04-09T10:58:46.170Z,12.63
2023-04-09T11:01:54.789Z,12.37
2023-04-09T11:05:20.227Z,12.58
2023-04-09T11:08:22.324Z,12.39
2023-04-09T11:11:26.876Z,11.72
2023-04-09T11:14:28.408Z,11.83
2023-04-09T11:17:30.235Z,11.58
2023-04-09T11:20:31.970Z,11.72
2023-04-09T11:23:33.880Z,13.13
2023-04-09T11:26:36.184Z,12.24
2023-04-09T11:29:39.204Z,14.01
2023-04-09T11:32:41.019Z,13.86
2023-04-09T11:35:42.858Z,13.10
2023-04-09T11:38:44.436Z,12.61
2023-04-09T11:41:47.073Z,12.36
2023-04-09T11:44:49.888Z,12.32
2023-04-09T11:47:51.670Z,12.13
2023-04-09T11:50:53.756Z,11.75
2023-04-09T11:53:55.359Z,11.64
2023-04-09T11:56:59.235Z,11.58
2023-04-09T12:00:31.092Z,12.31
2023-04-09T12:03:33.681Z,12.00
2023-04-09T12:06:40.316Z,12.00
2023-04-09T12:09:51.195Z,11.90
2023-04-09T12:12:52.852Z,12.33
2023-04-09T12:15:57.505Z,12.67
2023-04-09T12:19:04.393Z,12.65
2023-04-09T12:22:06.344Z,12.51
2023-04-09T12:25:20.285Z,12.71
2023-04-09T12:28:21.803Z,12.58
2023-04-09T12:31:23.476Z,12.60
2023-04-09T12:34:27.303Z,12.65
2023-04-09T12:37:28.970Z,12.12
2023-04-09T12:40:30.540Z,13.17
2023-04-09T12:43:32.126Z,13.38
2023-04-09T12:46:33.854Z,12.52
2023-04-09T12:49:35.518Z,12.48
2023-04-09T12:52:40.196Z,14.16
2023-04-09T12:55:43.010Z,14.13
2023-04-09T12:58:52.725Z,13.18
2023-04-09T13:01:57.331Z,12.63
2023-04-09T13:04:59.010Z,12.64
2023-04-09T13:08:00.563Z,12.21
2023-04-09T13:11:02.094Z,12.37
2023-04-09T13:14:03.756Z,12.05
2023-04-09T13:17:05.732Z,13.25
2023-04-09T13:20:08.267Z,13.82
2023-04-09T13:23:09.956Z,14.79
2023-04-09T13:26:11.668Z,14.83
2023-04-09T13:29:13.350Z,14.42
2023-04-09T13:32:14.932Z,13.34
2023-04-09T13:35:16.582Z,12.67
2023-04-09T13:38:18.506Z,12.30
2023-04-09T13:41:20.195Z,11.93
2023-04-09T13:44:22.167Z,13.34
2023-04-09T13:47:24.066Z,12.88
2023-04-09T13:50:26.508Z,12.46
2023-04-09T13:53:28.122Z,11.95
2023-04-09T13:56:30.867Z,13.08
2023-04-09T13:59:32.579Z,13.52
2023-04-09T14:02:34.377Z,13.60
2023-04-09T14:05:36.153Z,14.95
2023-04-09T14:08:37.696Z,15.55
2023-04-09T14:11:39.311Z,16.33
2023-04-09T14:14:43.289Z,16.61
2023-04-09T14:17:45.174Z,15.76
2023-04-09T14:20:46.958Z,16.68
2023-04-09T14:23:48.658Z,16.45
2023-04-09T14:26:53.670Z,16.12
2023-04-09T14:29:55.657Z,16.31
2023-04-09T14:33:00.123Z,16.11
2023-04-09T14:36:01.762Z,15.70
2023-04-09T14:39:03.398Z,15.36
2023-04-09T14:42:04.996Z,14.56
2023-04-09T14:45:07.171Z,14.12
2023-04-09T14:48:08.764Z,13.95
2023-04-09T14:51:10.938Z,13.95
2023-04-09T14:54:12.567Z,13.41
2023-04-09T14:57:14.149Z,13.34
2023-04-09T15:00:15.927Z,13.38
2023-04-09T15:03:17.904Z,13.47
2023-04-09T15:06:19.921Z,13.59
2023-04-09T15:09:21.545Z,13.42
2023-04-09T15:12:23.026Z,13.59
2023-04-09T15:15:24.700Z,13.67
2023-04-09T15:18:26.384Z,13.59
2023-04-09T15:21:29.656Z,13.54
2023-04-09T15:24:31.428Z,13.70
2023-04-09T15:27:33.094Z,13.83
2023-04-09T15:30:35.942Z,13.80
2023-04-09T15:33:42.400Z,13.67
2023-04-09T15:36:45.530Z,13.81
2023-04-09T15:39:47.214Z,13.90
2023-04-09T15:42:48.818Z,13.72
2023-04-09T15:45:51.039Z,13.64
2023-04-09T15:48:53.025Z,13.37
2023-04-09T15:51:54.641Z,13.53
2023-04-09T15:54:56.517Z,13.20
2023-04-09T15:57:58.036Z,13.42
2023-04-09T16:01:06.674Z,13.47
2023-04-09T16:04:09.416Z,13.20
2023-04-09T16:07:11.182Z,13.17
2023-04-09T16:10:14.679Z,13.31
2023-04-09T16:13:16.682Z,13.42
2023-04-09T16:16:18.730Z,13.32
2023-04-09T16:19:21.297Z,13.64
2023-04-09T16:22:22.853Z,13.47
2023-04-09T16:25:24.568Z,13.45
2023-04-09T16:28:27.041Z,13.52
2023-04-09T16:31:28.612Z,13.45
2023-04-09T16:34:31.952Z,13.49
2023-04-09T16:37:35.057Z,13.75
2023-04-09T16:40:36.624Z,13.17
2023-04-09T16:43:38.205Z,13.29
2023-04-09T16:46:39.853Z,13.41
2023-04-09T16:49:41.452Z,13.43
2023-04-09T16:52:44.101Z,13.49
2023-04-09T16:55:45.756Z,13.26
2023-04-09T16:58:47.904Z,13.19
2023-04-09T17:01:49.391Z,13.09
2023-04-09T17:04:51.615Z,13.20
2023-04-09T17:07:53.641Z,13.30
2023-04-09T17:11:01.934Z,13.08
2023-04-09T17:14:04.194Z,12.96
2023-04-09T17:17:05.575Z,13.08
2023-04-09T17:20:07.643Z,12.97
2023-04-09T17:23:09.157Z,12.81
2023-04-09T17:26:10.985Z,12.75
2023-04-09T17:29:13.191Z,12.58
2023-04-09T17:32:14.601Z,12.36
2023-04-09T17:35:21.254Z,11.95
2023-04-09T17:38:25.096Z,11.90
2023-04-09T17:41:27.778Z,11.68
2023-04-09T17:44:31.360Z,11.54
2023-04-09T17:47:33.182Z,11.26
2023-04-09T17:50:37.532Z,10.84
2023-04-09T17:53:39.155Z,10.59
2023-04-09T17:56:40.865Z,10.23
2023-04-09T17:59:42.480Z,9.75
2023-04-09T18:02:52.902Z,9.58
2023-04-09T18:05:54.854Z,9.17
2023-04-09T18:08:56.494Z,9.22
2023-04-09T18:12:00.043Z,9.29
2023-04-09T18:15:04.432Z,9.18
2023-04-09T18:18:06.071Z,9.02
2023-04-09T18:21:08.132Z,9.02
2023-04-09T18:24:09.705Z,8.88
2023-04-09T18:27:11.264Z,8.82
2023-04-09T18:30:13.004Z,8.53
2023-04-09T18:33:14.684Z,8.40
2023-04-09T18:36:16.405Z,8.21
2023-04-09T18:39:21.060Z,8.20
2023-04-09T18:42:22.635Z,8.09
2023-04-09T18:45:24.270Z,7.96
2023-04-09T18:48:25.993Z,7.94
2023-04-09T18:51:27.904Z,7.90
2023-04-09T18:54:29.440Z,7.74
2023-04-09T18:57:37.096Z,7.61
2023-04-09T19:00:39.752Z,7.59
2023-04-09T19:03:43.109Z,7.39
2023-04-09T19:06:47.461Z,7.33
2023-04-09T19:09:48.968Z,7.33
2023-04-09T19:12:53.784Z,7.32
2023-04-09T19:15:57.049Z,7.23
2023-04-09T19:19:01.197Z,7.24
2023-04-09T19:22:02.874Z,7.02
2023-04-09T19:25:04.909Z,6.90
2023-04-09T19:28:06.446Z,6.89
2023-04-09T19:31:08.100Z,6.84
2023-04-09T19:34:11.159Z,6.73
2023-04-09T19:37:15.075Z,6.60
2023-04-09T19:40:17.993Z,6.42
2023-04-09T19:43:19.520Z,6.27
2023-04-09T19:46:21.207Z,6.19
2023-04-09T19:49:22.841Z,6.25
2023-04-09T19:52:24.899Z,6.16
2023-04-09T19:55:29.311Z,6.00
2023-04-09T19:58:32.701Z,5.77
2023-04-09T20:01:34.420Z,5.76
2023-04-09T20:04:36.197Z,5.65
2023-04-09T20:07:38.495Z,5.56
2023-04-09T20:10:41.661Z,5.49
2023-04-09T20:13:43.289Z,5.51
2023-04-09T20:16:44.885Z,5.43
2023-04-09T20:19:46.627Z,5.22
2023-04-09T20:22:55.709Z,5.06
2023-04-09T20:25:58.084Z,4.93
2023-04-09T20:28:59.600Z,4.81
2023-04-09T20:32:01.339Z,4.71
2023-04-09T20:35:05.067Z,4.82
2023-04-09T20:38:09.377Z,4.86
2023-04-09T20:41:11.344Z,4.91
2023-04-09T20:44:13.045Z,4.78
2023-04-09T20:47:15.564Z,4.74
2023-04-09T20:50:17.460Z,4.74
2023-04-09T20:53:19.167Z,4.62
2023-04-09T20:56:20.734Z,4.45
2023-04-09T20:59:23.792Z,4.56
2023-04-09T21:02:25.654Z,4.46
2023-04-09T21:05:28.779Z,4.36
2023-04-09T21:08:30.610Z,4.32
2023-04-09T21:11:32.147Z,4.22
2023-04-09T21:14:36.690Z,4.24
2023-04-09T21:17:38.296Z,4.28
2023-04-09T21:20:46.186Z,4.38
2023-04-09T21:23:47.793Z,4.47
2023-04-09T21:26:51.982Z,4.36
2023-04-09T21:29:54.575Z,4.25
2023-04-09T21:32:56.455Z,4.24
2023-04-09T21:35:58.106Z,4.22
2023-04-09T21:38:59.744Z,4.14
2023-04-09T21:42:02.754Z,4.06
2023-04-09T21:45:04.727Z,4.16
2023-04-09T21:48:09.267Z,4.01
2023-04-09T21:51:11.458Z,3.90
2023-04-09T21:54:12.995Z,3.93
2023-04-09T21:57:14.811Z,3.93
2023-04-09T22:00:16.488Z,4.12
2023-04-09T22:03:18.265Z,4.19
2023-04-09T22:06:23.119Z,4.00
2023-04-09T22:09:24.776Z,3.99
2023-04-09T22:12:26.617Z,4.02
2023-04-09T22:15:28.284Z,3.91
2023-04-09T22:18:38.855Z,3.86
2023-04-09T22:21:41.391Z,3.85
2023-04-09T22:24:45.583Z,4.01
2023-04-09T22:27:53.563Z,3.96
2023-04-09T22:30:58.534Z,4.15
2023-04-09T22:34:10.074Z,4.19
2023-04-09T22:37:19.155Z,4.24
2023-04-09T22:40:20.758Z,4.17
2023-04-09T22:43:25.453Z,4.25
2023-04-09T22:46:27.021Z,4.08
2023-04-09T22:49:31.582Z,4.00
2023-04-09T22:52:33.258Z,3.93
2023-04-09T22:55:34.829Z,3.82
2023-04-09T22:58:36.547Z,3.67
2023-04-09T23:01:38.207Z,3.74
2023-04-09T23:04:39.848Z,3.79
2023-04-09T23:07:42.689Z,3.84
2023-04-09T23:10:44.291Z,3.83
2023-04-09T23:13:45.896Z,3.87
2023-04-09T23:16:47.405Z,3.75
2023-04-09T23:19:49.110Z,3.69
2023-04-09T23:22:50.887Z,3.64
2023-04-09T23:25:52.596Z,3.59
2023-04-09T23:28:54.349Z,3.57
2023-04-09T23:31:56.106Z,3.66
2023-04-09T23:34:58.964Z,3.56
2023-04-09T23:38:00.865Z,3.68
2023-04-09T23:41:02.416Z,3.69
2023-04-09T23:44:04.097Z,3.68
2023-04-09T23:47:06.580Z,3.55
2023-04-09T23:50:08.682Z,3.63
2023-04-09T23:53:10.963Z,3.46
2023-04-09T23:56:14.138Z,3.54
2023-04-09T23:59:15.793Z,3.54
